Time;durP1;ratioP1;P1;durP2;ratioP2;P2;SDS_P1;SDS_P2;PMS_P1;PMS_P2;Temp;Humidity;BMP_temperature;BMP_pressure;BME280_temperature;BME280_humidity;BME280_pressure;Samples;Min_cycle;Max_cycle;Signal;HPM_P1;HPM_P2
2022/06/04 00:00:19;;;;;;;36.92;27.15;;;14.40;99.90;;;;;;5077347;28;20052;-88
2022/06/04 00:02:47;;;;;;;39.03;25.70;;;14.30;99.90;;;;;;5077025;28;20418;-88
2022/06/04 00:05:16;;;;;;;34.78;26.13;;;14.30;99.90;;;;;;5087649;28;20028;-88
2022/06/04 00:07:42;;;;;;;39.20;26.40;;;14.30;99.90;;;;;;5077269;28;20513;-90
2022/06/04 00:15:51;;;;;;;40.40;30.35;;;14.40;99.90;;;;;;5094442;28;20089;-88
2022/06/04 00:19:13;;;;;;;39.55;30.25;;;14.40;99.90;;;;;;5077040;28;20035;-88
2022/06/04 00:21:42;;;;;;;42.70;30.67;;;14.40;99.90;;;;;;5077750;28;20066;-89
2022/06/04 00:24:08;;;;;;;42.60;30.50;;;14.40;99.90;;;;;;5076797;28;20130;-89
2022/06/04 00:26:33;;;;;;;38.90;28.25;;;14.40;99.90;;;;;;5076785;28;20093;-89
2022/06/04 00:28:59;;;;;;;37.65;27.75;;;14.40;99.90;;;;;;5076925;28;20032;-88
2022/06/04 00:31:25;;;;;;;44.28;29.90;;;14.40;99.90;;;;;;5077146;28;20021;-87
2022/06/04 00:33:51;;;;;;;38.40;28.52;;;14.40;99.90;;;;;;5077058;28;20395;-89
2022/06/04 00:36:17;;;;;;;34.92;26.38;;;14.40;99.90;;;;;;5076734;28;20035;-88
2022/06/04 00:38:45;;;;;;;38.83;28.70;;;14.30;99.90;;;;;;5077258;28;20073;-88
2022/06/04 00:41:27;;;;;;;32.53;25.33;;;14.30;99.90;;;;;;5076913;28;20035;-89
2022/06/04 00:44:21;;;;;;;33.58;22.95;;;14.20;99.90;;;;;;5077324;28;20032;-89
2022/06/04 00:47:06;;;;;;;30.25;22.63;;;14.20;99.90;;;;;;5039549;28;20047;-88
2022/06/04 00:49:32;;;;;;;30.70;23.17;;;14.10;99.90;;;;;;5076855;28;20370;-89
2022/06/04 00:52:38;;;;;;;30.27;22.88;;;14.10;99.90;;;;;;5076699;28;20039;-88
2022/06/04 00:55:06;;;;;;;32.45;22.95;;;14.00;99.90;;;;;;5076779;28;20122;-88
2022/06/04 00:58:09;;;;;;;30.50;23.48;;;14.00;99.90;;;;;;5076501;28;20061;-88
2022/06/04 01:00:59;;;;;;;34.10;23.13;;;13.90;99.90;;;;;;5093258;28;20024;-89
2022/06/04 01:04:02;;;;;;;26.85;20.35;;;13.80;99.90;;;;;;5076522;28;20036;-88
2022/06/04 01:06:46;;;;;;;30.65;23.23;;;13.80;99.90;;;;;;5076200;28;20024;-88
2022/06/04 01:09:37;;;;;;;34.35;22.30;;;13.80;99.90;;;;;;5076166;28;20122;-88
2022/06/04 01:12:33;;;;;;;27.90;21.98;;;13.70;99.90;;;;;;5045368;28;20048;-88
2022/06/04 01:15:06;;;;;;;29.55;21.58;;;13.70;99.90;;;;;;5092953;28;20109;-89
2022/06/04 01:18:09;;;;;;;28.95;21.98;;;13.60;99.90;;;;;;5093501;28;20039;-89
2022/06/04 01:20:59;;;;;;;26.70;20.50;;;13.50;99.90;;;;;;5077145;28;20109;-89
2022/06/04 01:23:27;;;;;;;29.35;21.85;;;13.50;99.90;;;;;;5076278;28;20040;-90
2022/06/04 01:26:21;;;;;;;30.38;21.98;;;13.50;99.90;;;;;;5076126;28;20126;-89
2022/06/04 01:28:54;;;;;;;30.35;22.42;;;13.50;99.90;;;;;;5076618;28;20101;-89
2022/06/04 01:31:37;;;;;;;31.38;23.00;;;13.50;99.90;;;;;;5076872;28;20122;-90
2022/06/04 01:34:07;;;;;;;31.13;20.73;;;13.50;99.90;;;;;;5076708;28;20364;-88
2022/06/04 01:37:05;;;;;;;35.22;21.98;;;13.50;99.90;;;;;;5076612;28;20062;-89
2022/06/04 01:42:22;;;;;;;31.08;20.48;;;13.50;99.90;;;;;;5097131;28;20039;-89
2022/06/04 01:44:51;;;;;;;25.40;20.42;;;13.50;99.90;;;;;;5079871;28;20035;-88
2022/06/04 01:47:20;;;;;;;26.05;19.58;;;13.50;99.90;;;;;;5097472;28;20024;-89
2022/06/04 01:53:36;;;;;;;28.55;19.88;;;13.40;99.90;;;;;;5098957;28;20090;-90
2022/06/04 01:56:11;;;;;;;30.67;20.55;;;13.40;99.90;;;;;;5079861;28;20020;-89
2022/06/04 01:58:53;;;;;;;25.67;19.20;;;13.40;99.90;;;;;;5080255;28;20028;-89
2022/06/04 02:01:26;;;;;;;26.77;19.48;;;13.40;99.90;;;;;;5079627;28;20020;-90
2022/06/04 02:04:26;;;;;;;32.22;20.42;;;13.30;99.90;;;;;;5079050;28;20066;-89
2022/06/04 02:07:31;;;;;;;31.75;21.00;;;13.30;99.90;;;;;;5079244;28;20032;-89
2022/06/04 02:10:20;;;;;;;29.10;19.45;;;13.40;99.90;;;;;;5079465;28;20075;-89
2022/06/04 02:12:48;;;;;;;26.20;19.08;;;13.40;99.90;;;;;;5095931;28;20028;-89
2022/06/04 02:15:19;;;;;;;28.83;18.98;;;13.40;99.90;;;;;;5078967;28;20039;-89
2022/06/04 02:17:48;;;;;;;25.02;18.65;;;13.40;99.90;;;;;;5096248;28;20509;-89
2022/06/04 02:20:14;;;;;;;25.20;18.48;;;13.40;99.90;;;;;;5078722;28;20119;-88
2022/06/04 02:22:40;;;;;;;26.17;20.13;;;13.40;99.90;;;;;;5079181;28;20077;-90
2022/06/04 02:25:09;;;;;;;37.38;21.73;;;13.60;99.90;;;;;;5078819;28;20475;-88
2022/06/04 02:27:35;;;;;;;34.13;22.70;;;13.70;99.90;;;;;;5078882;28;20032;-89
2022/06/04 02:30:02;;;;;;;33.40;22.98;;;13.70;99.90;;;;;;5078769;28;20040;-88
2022/06/04 02:32:46;;;;;;;34.47;23.05;;;13.80;99.90;;;;;;5078752;28;20066;-89
2022/06/04 02:35:31;;;;;;;36.58;24.95;;;13.80;99.90;;;;;;5078997;28;20407;-88
2022/06/04 02:38:06;;;;;;;34.28;25.50;;;13.90;99.90;;;;;;5078936;28;20529;-88
2022/06/04 02:40:35;;;;;;;34.00;23.85;;;13.90;99.90;;;;;;5078587;28;20387;-89
2022/06/04 02:43:09;;;;;;;35.42;23.40;;;13.90;99.90;;;;;;5077924;28;20587;-89
2022/06/04 02:45:42;;;;;;;35.28;23.55;;;13.90;99.90;;;;;;5078347;28;20059;-88
2022/06/04 02:48:21;;;;;;;31.23;21.17;;;13.80;99.90;;;;;;5078118;28;20483;-88
2022/06/04 02:51:22;;;;;;;29.20;19.20;;;13.70;99.90;;;;;;5094962;28;20498;-89
2022/06/04 02:53:49;;;;;;;;;;;13.70;99.90;;;;;;5074419;28;20044;-89
2022/06/04 02:56:25;;;;;;;27.95;17.55;;;13.50;99.90;;;;;;5078250;28;19915;-90
2022/06/04 02:58:56;;;;;;;27.00;19.63;;;13.40;99.90;;;;;;5078141;28;20038;-88
2022/06/04 03:01:23;;;;;;;24.48;18.10;;;13.40;99.90;;;;;;5094535;28;20035;-88
2022/06/04 03:03:49;;;;;;;24.98;18.17;;;13.30;99.90;;;;;;5077822;28;20052;-88
2022/06/04 03:06:32;;;;;;;31.65;20.35;;;13.30;99.90;;;;;;5077927;28;20043;-88
2022/06/04 03:09:01;;;;;;;34.38;21.60;;;13.30;99.90;;;;;;5077796;28;20094;-88
2022/06/04 03:11:27;;;;;;;30.92;21.95;;;13.40;99.90;;;;;;5077709;28;20115;-88
2022/06/04 03:13:53;;;;;;;31.85;22.30;;;13.40;99.90;;;;;;5094485;28;20806;-88
2022/06/04 03:16:19;;;;;;;30.33;21.20;;;13.50;99.90;;;;;;5077407;28;20036;-88
2022/06/04 03:18:45;;;;;;;30.10;21.17;;;13.50;99.90;;;;;;5094404;28;20049;-88
2022/06/04 03:21:28;;;;;;;25.23;18.95;;;13.60;99.90;;;;;;5077492;28;20032;-88
2022/06/04 03:23:54;;;;;;;28.05;18.83;;;13.60;99.90;;;;;;5076329;28;20032;-87
2022/06/04 03:26:19;;;;;;;31.55;20.05;;;13.70;99.90;;;;;;5093238;28;20133;-87
2022/06/04 03:28:45;;;;;;;25.73;19.52;;;13.80;99.90;;;;;;5093495;28;20532;-87
2022/06/04 03:31:11;;;;;;;36.15;23.65;;;13.80;99.90;;;;;;5077100;28;20043;-87
2022/06/04 03:33:36;;;;;;;32.13;22.02;;;13.90;99.90;;;;;;5076519;28;20067;-87
2022/06/04 03:36:03;;;;;;;33.10;22.85;;;13.90;99.90;;;;;;5077070;28;20028;-86
2022/06/04 03:38:28;;;;;;;33.03;22.77;;;13.90;99.90;;;;;;5093411;28;20046;-87
2022/06/04 03:40:54;;;;;;;33.20;21.88;;;14.00;99.90;;;;;;5076268;28;20122;-86
2022/06/04 03:43:20;;;;;;;29.73;21.35;;;14.00;99.90;;;;;;5076048;28;20640;-86
2022/06/04 03:45:45;;;;;;;36.33;23.30;;;14.10;99.90;;;;;;5076298;28;20077;-86
2022/06/04 03:48:11;;;;;;;33.63;22.42;;;14.20;99.90;;;;;;5076461;28;20028;-87
2022/06/04 03:50:37;;;;;;;35.28;23.73;;;14.20;99.90;;;;;;5075842;28;20425;-86
2022/06/04 03:53:04;;;;;;;29.10;21.20;;;14.30;99.90;;;;;;5075901;28;20031;-86
2022/06/04 03:56:04;;;;;;;31.08;20.95;;;14.30;99.90;;;;;;5075862;28;20039;-86
2022/06/04 03:58:30;;;;;;;29.42;21.73;;;14.30;99.90;;;;;;5075745;28;20032;-86
2022/06/04 04:00:57;;;;;;;28.70;20.05;;;14.30;99.90;;;;;;5075529;28;20051;-86
2022/06/04 04:03:23;;;;;;;26.77;20.40;;;14.30;99.90;;;;;;5092962;28;20028;-86
2022/06/04 04:05:55;;;;;;;25.83;18.05;;;14.40;99.90;;;;;;5092668;28;20055;-86
2022/06/04 04:08:24;;;;;;;28.42;20.42;;;14.30;99.90;;;;;;5075873;28;20097;-86
2022/06/04 04:10:50;;;;;;;23.65;17.50;;;14.30;99.90;;;;;;5075891;28;20098;-86
2022/06/04 04:13:18;;;;;;;28.10;17.45;;;14.30;99.90;;;;;;5075611;28;20064;-86
2022/06/04 04:15:45;;;;;;;21.60;16.85;;;14.30;99.90;;;;;;5075794;28;20063;-86
2022/06/04 04:18:11;;;;;;;23.50;17.13;;;14.30;99.90;;;;;;5092768;28;20032;-86
2022/06/04 04:20:39;;;;;;;26.00;17.42;;;14.30;99.90;;;;;;5075292;28;20467;-86
2022/06/04 04:23:07;;;;;;;26.52;18.30;;;14.40;99.90;;;;;;5075413;28;20097;-86
2022/06/04 04:25:35;;;;;;;25.33;19.05;;;14.40;99.90;;;;;;5074679;28;20043;-86
2022/06/04 04:28:02;;;;;;;24.75;19.13;;;14.50;99.90;;;;;;5075625;28;20441;-86
2022/06/04 04:30:33;;;;;;;26.88;17.60;;;14.50;99.90;;;;;;5075484;28;20032;-86
2022/06/04 04:33:00;;;;;;;22.58;17.10;;;14.50;99.90;;;;;;5075256;28;20119;-87
2022/06/04 04:35:28;;;;;;;22.10;17.75;;;14.60;99.90;;;;;;5075258;28;20399;-87
2022/06/04 04:37:55;;;;;;;22.50;17.30;;;14.60;99.90;;;;;;5075256;28;20032;-87
2022/06/04 04:40:22;;;;;;;22.95;16.95;;;14.60;99.90;;;;;;5075689;28;20372;-87
2022/06/04 04:42:49;;;;;;;22.33;16.00;;;14.60;99.90;;;;;;5075831;28;20036;-87
2022/06/04 04:45:17;;;;;;;22.38;15.82;;;14.70;99.90;;;;;;5075403;28;20101;-87
2022/06/04 04:47:44;;;;;;;21.55;15.13;;;14.80;99.90;;;;;;5092480;28;20035;-86
2022/06/04 04:50:22;;;;;;;20.77;16.15;;;14.80;99.90;;;;;;5075405;28;20237;-87
2022/06/04 04:52:49;;;;;;;20.42;15.60;;;14.90;99.90;;;;;;5075190;28;20055;-86
2022/06/04 04:55:15;;;;;;;22.17;16.85;;;14.90;99.90;;;;;;5091910;28;20034;-87
2022/06/04 04:57:41;;;;;;;19.92;16.15;;;15.00;99.90;;;;;;5075269;28;20028;-87
2022/06/04 05:00:09;;;;;;;23.05;15.88;;;15.10;99.90;;;;;;5091791;28;20467;-86
2022/06/04 05:02:35;;;;;;;21.75;16.60;;;15.20;99.90;;;;;;5075245;28;20032;-86
2022/06/04 05:05:01;;;;;;;18.98;14.40;;;15.30;99.90;;;;;;5074917;28;20127;-87
2022/06/04 05:07:27;;;;;;;18.63;14.85;;;15.30;99.90;;;;;;5075200;28;20064;-86
2022/06/04 05:09:53;;;;;;;24.83;15.65;;;15.50;99.90;;;;;;5075107;28;20074;-86
2022/06/04 05:12:19;;;;;;;18.02;14.43;;;15.50;99.90;;;;;;5074148;28;20036;-87
2022/06/04 05:14:44;;;;;;;23.08;15.35;;;15.60;99.90;;;;;;5090827;28;20447;-87
2022/06/04 05:17:10;;;;;;;20.45;13.48;;;15.70;99.90;;;;;;5074159;28;20032;-86
2022/06/04 05:19:36;;;;;;;21.08;14.35;;;15.80;99.90;;;;;;5074874;28;20032;-87
2022/06/04 05:22:03;;;;;;;19.40;13.82;;;15.80;99.90;;;;;;5074789;28;20039;-87
2022/06/04 05:24:34;;;;;;;15.48;12.60;;;16.00;99.90;;;;;;5074198;28;20032;-87
2022/06/04 05:27:02;;;;;;;16.33;12.95;;;16.10;99.90;;;;;;5075029;28;20089;-87
2022/06/04 05:29:29;;;;;;;14.93;13.32;;;16.20;99.90;;;;;;5091782;28;20040;-87
2022/06/04 05:31:56;;;;;;;13.50;11.00;;;16.30;99.90;;;;;;5075419;28;20032;-86
2022/06/04 05:34:37;;;;;;;13.45;11.45;;;16.40;99.90;;;;;;5074767;28;20036;-87
2022/06/04 05:37:03;;;;;;;13.38;10.20;;;16.60;99.90;;;;;;5074787;28;20391;-86
2022/06/04 05:39:33;;;;;;;11.02;9.95;;;16.80;99.90;;;;;;5074743;28;20032;-87
2022/06/04 05:42:00;;;;;;;10.00;8.88;;;17.00;99.90;;;;;;5074710;28;20487;-87
2022/06/04 05:44:26;;;;;;;11.35;8.50;;;17.10;99.90;;;;;;5074572;28;20040;-86
2022/06/04 05:46:52;;;;;;;13.43;9.57;;;17.30;99.90;;;;;;5075056;28;20433;-86
2022/06/04 05:49:19;;;;;;;9.38;7.70;;;17.60;99.90;;;;;;5091535;28;20036;-85
2022/06/04 05:51:45;;;;;;;8.55;7.38;;;17.90;99.90;;;;;;5090996;28;20435;-86
2022/06/04 05:54:12;;;;;;;7.57;6.78;;;18.10;99.90;;;;;;5090796;28;20064;-85
2022/06/04 05:56:41;;;;;;;9.55;6.07;;;18.30;99.90;;;;;;5074309;28;20032;-85
2022/06/04 05:59:09;;;;;;;6.07;5.53;;;18.40;99.90;;;;;;5091200;28;20024;-85
2022/06/04 06:01:38;;;;;;;6.10;5.32;;;18.70;99.90;;;;;;5074169;28;20102;-85
2022/06/04 06:04:06;;;;;;;5.65;4.80;;;18.80;99.90;;;;;;5090598;28;20039;-85
2022/06/04 06:06:33;;;;;;;6.40;4.88;;;19.00;99.90;;;;;;5074449;28;20055;-85
2022/06/04 06:09:03;;;;;;;5.53;4.82;;;19.30;99.90;;;;;;5074375;28;20062;-85
2022/06/04 06:11:30;;;;;;;6.38;4.97;;;19.50;99.90;;;;;;5073909;28;20118;-85
2022/06/04 06:13:56;;;;;;;5.30;4.53;;;19.90;99.90;;;;;;5090516;28;20028;-84
2022/06/04 06:16:29;;;;;;;6.32;4.22;;;19.90;99.90;;;;;;5074053;28;20039;-85
2022/06/04 06:18:55;;;;;;;4.78;4.35;;;20.40;99.90;;;;;;5074038;28;20032;-85
2022/06/04 06:21:23;;;;;;;4.18;3.78;;;20.40;99.90;;;;;;5074069;28;20039;-85
2022/06/04 06:23:50;;;;;;;9.02;4.72;;;20.50;99.90;;;;;;5090479;28;20123;-85
2022/06/04 06:26:23;;;;;;;8.93;5.85;;;20.60;99.90;;;;;;5077254;28;20040;-84
2022/06/04 06:28:49;;;;;;;8.85;6.00;;;20.80;99.90;;;;;;5077143;28;20036;-85
2022/06/04 06:31:18;;;;;;;10.68;5.70;;;20.70;99.90;;;;;;5095694;28;20042;-82
2022/06/04 06:33:44;;;;;;;10.38;6.88;;;20.80;99.90;;;;;;5076832;28;20028;-82
2022/06/04 06:36:13;;;;;;;10.50;6.43;;;20.80;99.90;;;;;;5077176;28;20035;-81
2022/06/04 06:38:39;;;;;;;7.03;5.97;;;20.90;99.90;;;;;;5077296;28;20039;-82
2022/06/04 06:41:06;;;;;;;7.68;6.30;;;21.00;99.90;;;;;;5077228;28;20484;-82
2022/06/04 06:43:47;;;;;;;7.78;6.03;;;20.90;99.90;;;;;;5076873;28;20364;-82
2022/06/04 06:46:25;;;;;;;7.55;5.95;;;20.90;99.90;;;;;;5077322;28;20043;-82
2022/06/04 06:49:17;;;;;;;6.75;5.90;;;20.80;99.90;;;;;;5076990;28;20036;-82
2022/06/04 06:51:49;;;;;;;8.88;6.47;;;20.80;99.90;;;;;;5076790;28;20102;-82
2022/06/04 06:54:18;;;;;;;8.10;6.10;;;20.70;99.90;;;;;;5076123;28;20031;-82
2022/06/04 06:56:45;;;;;;;8.75;5.88;;;20.60;99.90;;;;;;5093026;28;20024;-82
2022/06/04 06:59:11;;;;;;;8.68;6.07;;;20.80;99.90;;;;;;5076772;28;20035;-82
2022/06/04 07:01:38;;;;;;;9.30;6.03;;;20.90;99.90;;;;;;5076065;28;20028;-82
2022/06/04 07:04:04;;;;;;;7.70;6.40;;;21.00;99.90;;;;;;5092641;28;20032;-82
2022/06/04 07:06:39;;;;;;;11.15;6.20;;;21.10;99.90;;;;;;5093081;28;20042;-82
2022/06/04 07:09:11;;;;;;;8.32;6.40;;;21.00;99.90;;;;;;5093186;28;20041;-84
2022/06/04 07:11:37;;;;;;;8.55;5.80;;;20.70;99.90;;;;;;5076328;28;20040;-83
2022/06/04 07:14:03;;;;;;;7.38;6.60;;;20.90;99.90;;;;;;5076002;28;20065;-82
2022/06/04 07:16:29;;;;;;;9.20;5.55;;;21.10;99.90;;;;;;5076509;28;20024;-84
2022/06/04 07:18:54;;;;;;;8.20;6.13;;;21.70;99.90;;;;;;5076600;28;20077;-84
2022/06/04 07:21:20;;;;;;;9.23;6.43;;;22.10;99.90;;;;;;5093235;28;20043;-84
2022/06/04 07:23:47;;;;;;;8.43;6.50;;;22.10;99.90;;;;;;5093754;28;20118;-84
2022/06/04 07:26:13;;;;;;;10.05;7.72;;;21.80;99.90;;;;;;5092966;28;20038;-83
2022/06/04 07:28:57;;;;;;;11.20;8.30;;;21.50;99.90;;;;;;5075804;28;20030;-82
2022/06/04 07:31:23;;;;;;;11.90;9.48;;;21.20;99.90;;;;;;5075903;28;20483;-83
2022/06/04 07:33:52;;;;;;;9.32;8.43;;;20.90;99.90;;;;;;5076094;28;20131;-83
2022/06/04 07:36:22;;;;;;;11.82;9.98;;;20.70;99.90;;;;;;5075983;28;20491;-84
2022/06/04 07:38:47;;;;;;;11.35;10.07;;;20.60;99.90;;;;;;5075692;28;20060;-83
2022/06/04 07:41:23;;;;;;;14.15;12.65;;;20.60;99.90;;;;;;5092637;28;20059;-83
2022/06/04 07:43:49;;;;;;;14.52;11.77;;;20.00;99.90;;;;;;5093812;28;20499;-83
2022/06/04 07:46:15;;;;;;;14.73;12.38;;;19.80;99.90;;;;;;5092372;28;20070;-83
2022/06/04 07:48:41;;;;;;;13.85;12.38;;;19.70;99.90;;;;;;5075786;28;20752;-83
2022/06/04 07:51:07;;;;;;;16.67;12.43;;;19.40;99.90;;;;;;5075912;28;20634;-83
2022/06/04 07:53:33;;;;;;;14.93;13.35;;;19.20;99.90;;;;;;5075178;28;20035;-83
2022/06/04 07:56:08;;;;;;;15.18;13.57;;;19.00;99.90;;;;;;5092442;28;20077;-83
2022/06/04 07:58:35;;;;;;;19.73;13.77;;;18.90;99.90;;;;;;5075910;28;20498;-87
2022/06/04 08:01:01;;;;;;;16.80;15.00;;;19.00;99.90;;;;;;5094346;28;20028;-87
2022/06/04 08:03:27;;;;;;;20.98;15.05;;;18.80;99.90;;;;;;5075782;28;20036;-88
2022/06/04 08:05:53;;;;;;;19.05;16.98;;;18.80;99.90;;;;;;5093168;28;20068;-88
2022/06/04 08:08:19;;;;;;;20.35;16.83;;;18.80;99.90;;;;;;5092626;28;20111;-88
2022/06/04 08:10:48;;;;;;;20.42;16.73;;;18.80;99.90;;;;;;5092139;28;20032;-88
2022/06/04 08:13:18;;;;;;;20.30;17.00;;;18.80;99.90;;;;;;5075502;28;20063;-88
2022/06/04 08:15:44;;;;;;;28.58;20.63;;;19.00;99.90;;;;;;5076236;28;20357;-88
2022/06/04 08:18:22;;;;;;;25.08;19.50;;;18.80;99.90;;;;;;5075763;28;20020;-88
2022/06/04 08:20:48;;;;;;;22.15;18.15;;;18.80;99.90;;;;;;5093627;28;20016;-87
2022/06/04 08:23:14;;;;;;;21.25;16.65;;;18.80;99.90;;;;;;5093470;28;20028;-88
2022/06/04 08:25:42;;;;;;;22.85;16.60;;;18.90;99.90;;;;;;5092278;28;20028;-87
2022/06/04 08:28:08;;;;;;;21.20;17.38;;;19.10;99.90;;;;;;5075366;28;20821;-86
2022/06/04 08:30:35;;;;;;;20.60;17.13;;;19.00;99.90;;;;;;5074996;28;20032;-86
2022/06/04 08:33:01;;;;;;;19.42;17.20;;;19.20;99.90;;;;;;5091552;28;20039;-86
2022/06/04 08:35:26;;;;;;;22.25;16.73;;;19.40;99.90;;;;;;5093223;28;20047;-86
2022/06/04 08:37:52;;;;;;;23.77;16.48;;;19.40;99.90;;;;;;5075186;28;20115;-86
2022/06/04 08:40:28;;;;;;;19.85;16.33;;;19.60;99.90;;;;;;5075367;28;20090;-86
2022/06/04 08:43:26;;;;;;;15.68;13.50;;;19.60;99.90;;;;;;5092118;28;20130;-86
2022/06/04 08:45:52;;;;;;;17.27;14.73;;;19.70;99.90;;;;;;5091991;28;20051;-87
2022/06/04 08:48:34;;;;;;;19.38;14.35;;;19.60;99.90;;;;;;5091596;28;20028;-86
2022/06/04 08:51:01;;;;;;;15.20;13.52;;;19.60;99.90;;;;;;5093251;28;20483;-87
2022/06/04 08:53:30;;;;;;;19.70;15.45;;;19.60;99.90;;;;;;5074794;28;20039;-88
2022/06/04 08:59:19;;;;;;;26.70;14.23;;;19.70;99.90;;;;;;5093516;28;20032;-87
2022/06/04 09:02:08;;;;;;;19.27;14.43;;;19.70;99.90;;;;;;5075787;28;20378;-87
2022/06/04 09:04:43;;;;;;;19.02;13.35;;;19.60;99.90;;;;;;5092639;28;20505;-87
2022/06/04 09:07:41;;;;;;;14.50;12.65;;;19.50;99.90;;;;;;5075386;28;20130;-85
2022/06/04 09:10:12;;;;;;;14.60;12.98;;;19.60;99.90;;;;;;5091786;28;20136;-86
2022/06/04 09:12:49;;;;;;;14.88;12.52;;;19.60;99.90;;;;;;5092123;28;20071;-87
2022/06/04 09:15:19;;;;;;;18.20;13.07;;;19.70;99.90;;;;;;5092127;28;20479;-87
2022/06/04 09:17:51;;;;;;;15.30;11.68;;;19.70;99.90;;;;;;5074981;28;20119;-86
2022/06/04 09:20:31;;;;;;;14.02;12.63;;;19.90;99.90;;;;;;5075037;28;20028;-86
2022/06/04 09:23:19;;;;;;;14.10;12.70;;;19.90;99.90;;;;;;5075127;28;20032;-87
2022/06/04 09:25:51;;;;;;;16.60;12.15;;;19.70;99.90;;;;;;5074546;28;20390;-88
2022/06/04 09:28:26;;;;;;;14.25;11.98;;;19.70;99.90;;;;;;5074857;28;20383;-88
2022/06/04 09:31:03;;;;;;;13.68;12.23;;;19.70;99.90;;;;;;5092157;28;20056;-89
2022/06/04 09:33:28;;;;;;;15.73;13.63;;;19.70;99.90;;;;;;5093491;28;20032;-89
2022/06/04 09:35:55;;;;;;;18.83;16.27;;;19.60;99.90;;;;;;5092541;28;20027;-88
2022/06/04 09:38:27;;;;;;;21.50;19.05;;;19.50;99.90;;;;;;5092109;28;20036;-88
2022/06/04 09:41:18;;;;;;;17.48;15.00;;;19.40;99.90;;;;;;5075154;28;20032;-88
2022/06/04 09:43:45;;;;;;;17.13;15.07;;;19.10;99.90;;;;;;5074829;28;20486;-89
2022/06/04 09:46:13;;;;;;;20.02;16.73;;;18.90;99.90;;;;;;5093369;28;20036;-89
2022/06/04 09:48:51;;;;;;;21.17;15.80;;;18.90;99.90;;;;;;5092196;28;20035;-88
2022/06/04 09:51:29;;;;;;;21.83;16.52;;;18.70;99.90;;;;;;5074730;28;20032;-88
2022/06/04 09:54:04;;;;;;;21.38;16.58;;;18.70;99.90;;;;;;5074992;28;20114;-89
2022/06/04 09:56:36;;;;;;;25.58;21.85;;;18.70;99.90;;;;;;5074959;28;20038;-90
2022/06/04 09:59:28;;;;;;;19.60;17.55;;;18.70;99.90;;;;;;5095762;28;20039;-88
2022/06/04 10:02:09;;;;;;;20.58;17.52;;;18.70;99.90;;;;;;5078478;28;20028;-88
2022/06/04 10:04:47;;;;;;;20.55;16.52;;;18.70;99.90;;;;;;5095308;28;20487;-88
2022/06/04 10:07:27;;;;;;;19.92;15.15;;;18.80;99.90;;;;;;5095535;28;20036;-88
2022/06/04 10:09:56;;;;;;;18.13;16.30;;;18.80;99.90;;;;;;5095957;28;20042;-89
2022/06/04 10:15:30;;;;;;;22.08;17.85;;;18.70;99.90;;;;;;5096562;28;20032;-89
2022/06/04 10:18:20;;;;;;;23.00;19.23;;;18.60;99.90;;;;;;5077808;28;20038;-88
2022/06/04 10:21:03;;;;;;;22.93;18.87;;;18.40;99.90;;;;;;5017092;28;20666;-88
2022/06/04 10:23:39;;;;;;;21.17;18.90;;;18.30;99.90;;;;;;5074212;28;20044;-88
2022/06/04 10:26:41;;;;;;;23.25;20.45;;;18.20;99.90;;;;;;5078066;28;20067;-88
2022/06/04 10:29:33;;;;;;;27.48;21.75;;;18.20;99.90;;;;;;5078480;28;20039;-89
2022/06/04 10:32:33;;;;;;;23.85;20.75;;;18.20;99.90;;;;;;5078899;28;20036;-88
2022/06/04 10:35:23;;;;;;;20.13;17.77;;;18.30;99.90;;;;;;5057415;28;20047;-88
2022/06/04 10:37:58;;;;;;;19.30;17.27;;;18.40;99.90;;;;;;5077665;28;20760;-88
2022/06/04 10:41:04;;;;;;;21.13;17.73;;;18.60;99.90;;;;;;5077989;28;20027;-88
2022/06/04 10:43:53;;;;;;;18.23;16.10;;;18.80;99.90;;;;;;5078078;28;20036;-89
2022/06/04 10:46:30;;;;;;;22.35;15.95;;;19.20;99.90;;;;;;5077955;28;20434;-88
2022/06/04 10:49:35;;;;;;;17.33;13.30;;;19.50;99.90;;;;;;5078022;28;20483;-88
2022/06/04 10:52:15;;;;;;;13.68;12.25;;;19.70;99.90;;;;;;5077578;28;20499;-88
2022/06/04 10:54:50;;;;;;;13.48;11.68;;;20.00;99.90;;;;;;5096405;28;20040;-88
2022/06/04 10:57:22;;;;;;;11.02;9.15;;;20.10;99.90;;;;;;5077617;28;20391;-88
2022/06/04 11:00:06;;;;;;;13.90;8.45;;;20.20;99.90;;;;;;5077540;28;20344;-88
2022/06/04 11:02:57;;;;;;;8.40;7.53;;;20.30;99.90;;;;;;5094484;28;20032;-87
2022/06/04 11:05:27;;;;;;;13.80;8.15;;;20.50;99.90;;;;;;5095248;28;20028;-88
2022/06/04 11:07:57;;;;;;;10.15;8.82;;;20.60;99.90;;;;;;5095392;28;20024;-88
2022/06/04 11:10:28;;;;;;;11.63;8.48;;;20.60;99.90;;;;;;5077442;28;20043;-87
2022/06/04 11:13:25;;;;;;;11.05;8.85;;;20.70;99.90;;;;;;5083535;28;20040;-87
2022/06/04 11:16:16;;;;;;;9.52;8.63;;;20.90;99.90;;;;;;5095707;28;20081;-88
2022/06/04 11:18:58;;;;;;;11.48;9.20;;;21.10;99.90;;;;;;5065980;28;20036;-87
2022/06/04 11:21:29;;;;;;;8.98;7.70;;;21.40;99.90;;;;;;5094547;28;20024;-88
2022/06/04 11:24:13;;;;;;;10.82;7.35;;;21.80;99.90;;;;;;5076952;28;20032;-89
2022/06/04 11:26:55;;;;;;;7.90;7.10;;;22.00;99.90;;;;;;5077049;28;20036;-87
2022/06/04 11:29:21;;;;;;;8.15;7.35;;;22.20;99.90;;;;;;5077282;28;20383;-88
2022/06/04 11:31:58;;;;;;;10.82;6.93;;;22.20;99.90;;;;;;5076696;28;20395;-87
2022/06/04 11:34:51;;;;;;;7.03;6.32;;;21.90;99.90;;;;;;5076624;28;20031;-87
2022/06/04 11:37:32;;;;;;;8.60;6.10;;;21.60;99.90;;;;;;5076745;28;20028;-87
2022/06/04 11:40:11;;;;;;;5.38;4.88;;;21.40;99.90;;;;;;5076953;28;20028;-87
2022/06/04 11:42:55;;;;;;;6.28;4.53;;;21.50;99.90;;;;;;5093021;28;20028;-87
2022/06/04 11:45:47;;;;;;;5.65;4.85;;;21.80;99.90;;;;;;5076133;28;20127;-87
2022/06/04 11:52:20;;;;;;;4.50;4.10;;;22.60;99.90;;;;;;5032445;28;20087;-87
2022/06/04 11:54:56;;;;;;;7.50;4.18;;;22.90;99.90;;;;;;5060461;28;20044;-87
2022/06/04 11:57:37;;;;;;;5.00;3.92;;;23.20;99.90;;;;;;5076517;28;20120;-88
2022/06/04 12:00:48;;;;;;;3.67;3.33;;;23.50;99.90;;;;;;5092224;28;20725;-87
2022/06/04 12:03:31;;;;;;;4.70;3.93;;;23.70;99.90;;;;;;5058797;28;20031;-88
2022/06/04 12:06:16;;;;;;;11.43;4.00;;;24.10;99.90;;;;;;5093293;28;20042;-88
2022/06/04 12:09:11;;;;;;;4.18;3.78;;;24.30;99.90;;;;;;5092986;28;20028;-88
2022/06/04 12:11:49;;;;;;;5.75;3.88;;;24.40;99.90;;;;;;5069198;28;20128;-87
2022/06/04 12:14:27;;;;;;;4.00;3.58;;;24.60;99.90;;;;;;5075932;28;20085;-88
2022/06/04 12:17:11;;;;;;;4.05;3.65;;;25.00;99.90;;;;;;5093225;28;20032;-88
2022/06/04 12:25:18;;;;;;;4.30;3.90;;;25.70;99.90;;;;;;5092717;28;20062;-87
2022/06/04 12:28:00;;;;;;;22.90;9.57;;;26.10;99.90;;;;;;5076131;28;20036;-88
2022/06/04 12:30:42;;;;;;;4.10;3.03;;;26.90;99.90;;;;;;5075376;28;20544;-87
2022/06/04 12:33:35;;;;;;;5.07;3.13;;;27.60;99.90;;;;;;5092234;28;20760;-87
2022/06/04 12:36:04;;;;;;;3.13;2.85;;;28.00;99.90;;;;;;5092615;28;20502;-87
2022/06/04 12:38:33;;;;;;;3.63;3.33;;;28.20;99.90;;;;;;5075620;28;20116;-88
2022/06/04 12:41:15;;;;;;;3.55;2.67;;;27.70;99.90;;;;;;5091266;28;20093;-89
2022/06/04 12:43:44;;;;;;;3.90;3.38;;;28.00;99.90;;;;;;5092180;28;20143;-88
2022/06/04 12:46:16;;;;;;;4.30;3.78;;;28.20;99.90;;;;;;5075306;28;20024;-87
2022/06/04 12:48:51;;;;;;;4.18;2.63;;;28.10;99.90;;;;;;5092465;28;20031;-88
2022/06/04 12:51:44;;;;;;;4.72;3.10;;;28.00;99.90;;;;;;5093527;28;20028;-87
2022/06/04 12:54:39;;;;;;;2.63;2.42;;;28.00;99.90;;;;;;5091836;28;20032;-87
2022/06/04 12:57:37;;;;;;;3.03;2.67;;;27.40;99.90;;;;;;5091568;28;20031;-87
2022/06/04 13:00:18;;;;;;;2.70;2.50;;;27.20;99.90;;;;;;5087897;28;20032;-86
2022/06/04 13:03:06;;;;;;;3.63;2.97;;;27.10;99.90;;;;;;5092047;28;20084;-87
2022/06/04 13:05:34;;;;;;;2.90;2.40;;;27.40;99.90;;;;;;5075263;28;20729;-87
2022/06/04 13:08:19;;;;;;;3.55;2.50;;;28.10;99.90;;;;;;5075277;28;20452;-88
2022/06/04 13:10:59;;;;;;;3.92;2.72;;;28.60;99.90;;;;;;5091930;28;20060;-87
2022/06/04 13:13:54;;;;;;;3.53;2.45;;;28.80;99.90;;;;;;5075210;28;20541;-88
2022/06/04 13:16:24;;;;;;;3.00;2.30;;;29.80;99.90;;;;;;5074547;28;20097;-88
2022/06/04 13:19:05;;;;;;;3.17;2.53;;;29.60;99.90;;;;;;5092319;28;20020;-88
2022/06/04 13:21:33;;;;;;;2.85;2.65;;;28.40;99.90;;;;;;5092375;28;20111;-87
2022/06/04 13:24:04;;;;;;;3.33;2.75;;;27.90;99.90;;;;;;5091711;28;20020;-88
2022/06/04 13:26:48;;;;;;;3.03;2.83;;;27.50;99.90;;;;;;5092536;28;20038;-87
2022/06/04 13:29:26;;;;;;;3.90;2.63;;;27.40;99.90;;;;;;5075457;28;20028;-88
2022/06/04 13:31:58;;;;;;;2.95;2.25;;;28.00;99.90;;;;;;5074901;28;20143;-87
2022/06/04 13:34:27;;;;;;;3.08;2.60;;;28.40;99.90;;;;;;5095925;28;20035;-88
2022/06/04 13:37:04;;;;;;;2.83;2.60;;;29.40;99.90;;;;;;5096474;28;20103;-87